Clarksburg, Indiana
Current Conditions -  °F | °C
As of 12:53 PM on Sunday 21 Dec 2014 (Local Time) from KGEZ Reporting Station
Few Clouds Few Clouds  
Wind Chill: 29°   Ceiling: Unl
Heat Index: 35°   Visibility: 8mi
Dew Point: 27°   Wind: 7mph
Humidity: 72%   Direction: 140°SE
Pressure: 30.22"   Gusts: NA
Location:  39.43°N, 85.35°W
Report Text: KGEZ 211753Z AUTO 14006KT 8SM FEW015 02/M03 A3022 RMK AO2 SLP241 I6000 T00171028 10017 21056 58024
Loading
Personal Weather Stations






























Interactive Weather Map New forecast layout! Learn more

10-Day Weather Forecast

Advertisements
Track Severe Weather on mobile